Time;durP1;ratioP1;P1;durP2;ratioP2;P2;SDS_P1;SDS_P2;PMS_P1;PMS_P2;Temp;Humidity;BMP_temperature;BMP_pressure;BME280_temperature;BME280_humidity;BME280_pressure;Samples;Min_cycle;Max_cycle;Signal;HPM_P1;HPM_P2
2023/09/24 00:02:20;;;;;;;56.60;23.20;;;;;;;;;;5070355;28;20135;-61
2023/09/24 00:04:46;;;;;;;67.97;26.43;;;;;;;;;;5067275;28;20057;-61
2023/09/24 00:07:14;;;;;;;58.63;24.03;;;;;;;;;;5068984;28;20078;-61
2023/09/24 00:09:40;;;;;;;71.03;26.67;;;;;;;;;;5056167;28;20538;-62
2023/09/24 00:12:06;;;;;;;76.70;28.53;;;;;;;;;;5048662;28;20094;-61
2023/09/24 00:14:32;;;;;;;68.60;24.83;;;;;;;;;;5050258;28;20053;-61
2023/09/24 00:16:58;;;;;;;58.17;23.60;;;;;;;;;;5050201;28;20095;-61
2023/09/24 00:19:24;;;;;;;93.00;29.60;;;;;;;;;;5049051;28;20051;-61
2023/09/24 00:21:51;;;;;;;95.73;29.77;;;;;;;;;;5049264;28;20441;-61
2023/09/24 00:24:17;;;;;;;79.03;28.87;;;;;;;;;;5049900;28;20076;-61
2023/09/24 00:26:43;;;;;;;87.13;28.00;;;;;;;;;;5049719;28;20044;-61
2023/09/24 00:29:10;;;;;;;91.00;30.63;;;;;;;;;;5049899;28;20045;-61
2023/09/24 00:31:36;;;;;;;84.00;30.80;;;;;;;;;;5048845;28;20049;-61
2023/09/24 00:34:02;;;;;;;109.67;31.13;;;;;;;;;;5049988;28;20041;-61
2023/09/24 00:36:28;;;;;;;121.93;35.43;;;;;;;;;;5049394;28;20175;-61
2023/09/24 00:38:54;;;;;;;114.33;33.63;;;;;;;;;;5048582;28;20422;-61
2023/09/24 00:41:20;;;;;;;100.30;29.10;;;;;;;;;;5049482;28;20431;-61
2023/09/24 00:43:46;;;;;;;108.23;31.07;;;;;;;;;;5049230;28;20148;-61
2023/09/24 00:46:14;;;;;;;107.07;30.57;;;;;;;;;;5049516;28;20076;-63
2023/09/24 00:48:40;;;;;;;136.50;33.97;;;;;;;;;;5049389;28;20355;-63
2023/09/24 00:51:16;;;;;;;110.50;30.93;;;;;;;;;;5049596;28;20044;-64
2023/09/24 00:53:43;;;;;;;87.13;26.53;;;;;;;;;;5049516;28;20565;-64
2023/09/24 00:56:09;;;;;;;78.57;27.40;;;;;;;;;;5053898;28;20499;-63
2023/09/24 00:58:36;;;;;;;47.60;21.80;;;;;;;;;;5067579;28;20052;-63
2023/09/24 01:01:03;;;;;;;51.80;22.03;;;;;;;;;;5068538;28;20048;-63
2023/09/24 01:03:29;;;;;;;36.80;18.80;;;;;;;;;;5067515;28;20044;-63
2023/09/24 01:05:55;;;;;;;61.47;23.80;;;;;;;;;;5068245;28;20045;-61
2023/09/24 01:08:23;;;;;;;53.53;21.70;;;;;;;;;;5068374;28;20044;-61
2023/09/24 01:10:49;;;;;;;56.43;23.77;;;;;;;;;;5068173;28;20067;-61
2023/09/24 01:13:15;;;;;;;63.03;24.73;;;;;;;;;;5057192;28;20575;-61
2023/09/24 01:15:46;;;;;;;52.73;21.60;;;;;;;;;;5050563;28;20072;-61
2023/09/24 01:18:12;;;;;;;42.13;19.97;;;;;;;;;;5067880;28;20139;-61
2023/09/24 01:20:41;;;;;;;44.37;20.47;;;;;;;;;;5068300;28;20044;-61
2023/09/24 01:23:14;;;;;;;49.80;21.83;;;;;;;;;;5067575;28;20443;-61
2023/09/24 01:25:42;;;;;;;49.50;20.58;;;;;;;;;;5068114;28;20045;-61
2023/09/24 01:28:08;;;;;;;48.63;20.93;;;;;;;;;;5066493;28;20044;-61
2023/09/24 01:30:35;;;;;;;48.63;21.07;;;;;;;;;;5065985;28;20047;-61
2023/09/24 01:33:01;;;;;;;35.50;17.47;;;;;;;;;;5068163;28;20090;-61
2023/09/24 01:35:28;;;;;;;33.47;16.03;;;;;;;;;;5068383;28;20044;-61
2023/09/24 01:37:59;;;;;;;34.40;16.13;;;;;;;;;;5067042;28;21162;-61
2023/09/24 01:40:32;;;;;;;29.27;15.50;;;;;;;;;;5067978;28;20048;-61
2023/09/24 01:42:58;;;;;;;34.33;16.42;;;;;;;;;;5067896;28;20142;-62
2023/09/24 01:45:25;;;;;;;36.03;16.10;;;;;;;;;;5068228;28;20132;-61
2023/09/24 01:47:51;;;;;;;31.50;13.83;;;;;;;;;;5067287;28;20064;-61
2023/09/24 01:50:17;;;;;;;27.13;13.97;;;;;;;;;;5067883;28;20048;-61
2023/09/24 01:52:45;;;;;;;29.47;13.37;;;;;;;;;;5057116;28;20049;-61
2023/09/24 01:55:15;;;;;;;31.90;14.77;;;;;;;;;;5047528;28;20049;-61
2023/09/24 01:57:42;;;;;;;28.73;13.67;;;;;;;;;;5047568;28;20128;-61
2023/09/24 02:00:11;;;;;;;28.30;13.17;;;;;;;;;;5047837;28;20057;-61
2023/09/24 02:02:38;;;;;;;33.07;14.43;;;;;;;;;;5048490;28;20757;-61
2023/09/24 02:05:06;;;;;;;31.63;14.93;;;;;;;;;;5047902;28;20106;-61
2023/09/24 02:07:32;;;;;;;37.67;15.57;;;;;;;;;;5047307;28;20056;-61
2023/09/24 02:09:58;;;;;;;34.23;14.63;;;;;;;;;;5047629;28;20049;-61
2023/09/24 02:12:25;;;;;;;22.90;11.60;;;;;;;;;;5047856;28;20049;-61
2023/09/24 02:14:52;;;;;;;29.73;14.13;;;;;;;;;;5047314;28;20045;-61
2023/09/24 02:17:18;;;;;;;28.63;12.90;;;;;;;;;;5047929;28;20404;-61
2023/09/24 02:19:44;;;;;;;29.13;12.80;;;;;;;;;;5047340;28;20049;-61
2023/09/24 02:22:11;;;;;;;29.97;13.77;;;;;;;;;;5047247;28;20088;-61
2023/09/24 02:24:40;;;;;;;29.47;14.33;;;;;;;;;;5047147;28;20053;-60
2023/09/24 02:27:07;;;;;;;26.57;12.90;;;;;;;;;;5047977;28;20100;-61
2023/09/24 02:29:33;;;;;;;26.20;13.13;;;;;;;;;;5047270;28;20167;-61
2023/09/24 02:31:59;;;;;;;41.47;16.10;;;;;;;;;;5047688;28;20037;-61
2023/09/24 02:34:25;;;;;;;35.03;15.43;;;;;;;;;;5046959;28;20045;-61
2023/09/24 02:36:53;;;;;;;29.93;14.43;;;;;;;;;;5046868;28;20056;-61
2023/09/24 02:39:22;;;;;;;25.20;13.87;;;;;;;;;;5047747;28;20063;-61
2023/09/24 02:41:49;;;;;;;29.13;15.07;;;;;;;;;;5047322;28;20440;-61
2023/09/24 02:44:17;;;;;;;28.20;12.67;;;;;;;;;;5047251;28;20041;-61
2023/09/24 02:46:44;;;;;;;33.10;15.97;;;;;;;;;;5047228;28;20068;-61
2023/09/24 02:49:10;;;;;;;26.30;13.30;;;;;;;;;;5047245;28;20398;-61
2023/09/24 02:51:36;;;;;;;28.43;13.00;;;;;;;;;;5046645;28;20559;-61
2023/09/24 02:54:02;;;;;;;34.00;15.83;;;;;;;;;;5047481;28;20051;-61
2023/09/24 02:56:28;;;;;;;35.77;15.00;;;;;;;;;;5047197;28;20069;-62
2023/09/24 02:58:55;;;;;;;29.60;15.30;;;;;;;;;;5047300;28;20459;-61
2023/09/24 03:01:21;;;;;;;25.30;12.97;;;;;;;;;;5047495;28;20549;-61
2023/09/24 03:03:48;;;;;;;32.80;15.40;;;;;;;;;;5057971;28;20073;-61
2023/09/24 03:06:16;;;;;;;25.80;13.40;;;;;;;;;;5050591;28;20041;-61
2023/09/24 03:08:43;;;;;;;27.07;13.73;;;;;;;;;;5051244;28;20134;-61
2023/09/24 03:11:15;;;;;;;29.40;14.00;;;;;;;;;;5068005;28;20295;-61
2023/09/24 03:13:41;;;;;;;27.17;13.45;;;;;;;;;;5070835;28;20056;-61
2023/09/24 03:16:08;;;;;;;31.53;14.77;;;;;;;;;;5070441;28;20210;-61
2023/09/24 03:18:35;;;;;;;24.70;13.87;;;;;;;;;;5069985;28;20087;-61
2023/09/24 03:21:03;;;;;;;29.53;13.70;;;;;;;;;;5071327;28;20097;-61
2023/09/24 03:23:29;;;;;;;46.47;20.07;;;;;;;;;;5070749;28;20475;-61
2023/09/24 03:25:56;;;;;;;44.63;18.80;;;;;;;;;;5062953;28;20128;-61
2023/09/24 03:28:23;;;;;;;35.80;15.93;;;;;;;;;;5051274;28;20080;-61
2023/09/24 03:30:49;;;;;;;33.90;16.83;;;;;;;;;;5050678;28;20053;-61
2023/09/24 03:33:15;;;;;;;31.77;15.37;;;;;;;;;;5051064;28;20051;-61
2023/09/24 03:35:42;;;;;;;28.97;14.87;;;;;;;;;;5050680;28;20053;-61
2023/09/24 03:38:08;;;;;;;35.60;15.77;;;;;;;;;;5062912;28;20071;-61
2023/09/24 03:40:34;;;;;;;34.60;17.73;;;;;;;;;;5071073;28;20411;-61
2023/09/24 03:43:00;;;;;;;35.50;16.80;;;;;;;;;;5070370;28;20050;-60
2023/09/24 03:45:26;;;;;;;31.60;16.80;;;;;;;;;;5070855;28;20525;-62
2023/09/24 03:47:52;;;;;;;32.97;17.27;;;;;;;;;;5070658;28;20046;-62
2023/09/24 03:50:18;;;;;;;37.33;18.00;;;;;;;;;;5070813;28;20075;-67
2023/09/24 03:52:45;;;;;;;40.33;17.17;;;;;;;;;;5070644;28;20518;-61
2023/09/24 03:55:11;;;;;;;43.97;21.47;;;;;;;;;;5070282;28;20055;-61
2023/09/24 03:57:38;;;;;;;35.87;16.33;;;;;;;;;;5070359;28;20052;-61
2023/09/24 04:00:15;;;;;;;32.70;16.10;;;;;;;;;;5064495;28;20059;-61
2023/09/24 04:02:43;;;;;;;41.33;20.20;;;;;;;;;;5050675;28;20147;-61
2023/09/24 04:05:13;;;;;;;39.30;17.67;;;;;;;;;;5050803;28;20094;-61
2023/09/24 04:07:40;;;;;;;34.30;15.20;;;;;;;;;;5050112;28;20080;-61
2023/09/24 04:10:06;;;;;;;30.70;16.77;;;;;;;;;;5050159;28;20056;-61
2023/09/24 04:12:35;;;;;;;36.43;17.53;;;;;;;;;;5049809;28;20083;-61
2023/09/24 04:15:04;;;;;;;47.20;20.17;;;;;;;;;;5050177;28;20530;-61
2023/09/24 04:17:33;;;;;;;42.97;19.50;;;;;;;;;;5049975;28;20518;-61
2023/09/24 04:19:59;;;;;;;41.07;20.87;;;;;;;;;;5053059;28;20534;-61
2023/09/24 04:22:25;;;;;;;32.10;16.63;;;;;;;;;;5062703;28;20036;-61
2023/09/24 04:24:53;;;;;;;30.93;16.23;;;;;;;;;;5070233;28;20408;-61
2023/09/24 04:27:20;;;;;;;56.90;23.17;;;;;;;;;;5069906;28;20055;-61
2023/09/24 04:29:46;;;;;;;47.47;21.37;;;;;;;;;;5069413;28;20402;-61
2023/09/24 04:32:12;;;;;;;45.53;20.73;;;;;;;;;;5069872;28;20131;-61
2023/09/24 04:34:38;;;;;;;41.40;19.57;;;;;;;;;;5068254;28;20132;-61
2023/09/24 04:37:04;;;;;;;55.47;24.20;;;;;;;;;;5069859;28;20507;-61
2023/09/24 04:39:30;;;;;;;48.13;21.10;;;;;;;;;;5067634;28;20059;-61
2023/09/24 04:41:56;;;;;;;49.33;22.07;;;;;;;;;;5069897;28;20478;-61
2023/09/24 04:44:22;;;;;;;38.27;18.53;;;;;;;;;;5069384;28;20530;-61
2023/09/24 04:46:48;;;;;;;41.57;19.10;;;;;;;;;;5069273;28;20056;-61
2023/09/24 04:49:14;;;;;;;54.30;22.57;;;;;;;;;;5056750;28;20048;-61
2023/09/24 04:51:40;;;;;;;35.53;19.67;;;;;;;;;;5049053;28;20052;-61
2023/09/24 04:54:06;;;;;;;51.30;22.80;;;;;;;;;;5049811;28;20080;-61
2023/09/24 04:56:32;;;;;;;38.53;19.80;;;;;;;;;;5048756;28;20049;-61
2023/09/24 04:58:58;;;;;;;51.27;23.30;;;;;;;;;;5049201;28;20045;-61
2023/09/24 05:01:24;;;;;;;42.67;21.57;;;;;;;;;;5049363;28;20098;-61
2023/09/24 05:03:51;;;;;;;39.67;19.13;;;;;;;;;;5049003;28;20067;-61
2023/09/24 05:06:18;;;;;;;47.27;22.83;;;;;;;;;;5049402;28;20048;-62
2023/09/24 05:08:44;;;;;;;52.77;24.07;;;;;;;;;;5052137;28;20048;-61
2023/09/24 05:11:10;;;;;;;54.83;24.13;;;;;;;;;;5049053;28;20041;-61
2023/09/24 05:13:36;;;;;;;47.53;22.70;;;;;;;;;;5049278;28;20055;-62
2023/09/24 05:16:03;;;;;;;54.97;25.90;;;;;;;;;;5048728;28;20052;-62
2023/09/24 05:18:29;;;;;;;41.43;21.67;;;;;;;;;;5048846;28;20049;-61
2023/09/24 05:20:56;;;;;;;54.23;26.20;;;;;;;;;;5048986;28;20045;-64
2023/09/24 05:23:22;;;;;;;50.20;23.67;;;;;;;;;;5049183;28;20045;-64
2023/09/24 05:25:50;;;;;;;38.97;21.40;;;;;;;;;;5048108;28;20083;-64
2023/09/24 05:28:16;;;;;;;73.37;27.03;;;;;;;;;;5049690;28;20564;-64
2023/09/24 05:30:42;;;;;;;40.00;21.53;;;;;;;;;;5057704;28;20056;-64
2023/09/24 05:33:08;;;;;;;38.03;20.77;;;;;;;;;;5068584;28;20048;-64
2023/09/24 05:35:34;;;;;;;64.93;28.30;;;;;;;;;;5055292;28;20041;-64
2023/09/24 05:38:00;;;;;;;41.20;21.73;;;;;;;;;;5055711;28;20052;-64
2023/09/24 05:40:26;;;;;;;49.93;24.27;;;;;;;;;;5068741;28;20048;-64
2023/09/24 05:42:52;;;;;;;59.40;25.67;;;;;;;;;;5068637;28;20045;-64
2023/09/24 05:45:19;;;;;;;46.20;22.50;;;;;;;;;;5064082;28;20380;-64
2023/09/24 05:47:45;;;;;;;43.33;23.17;;;;;;;;;;5068406;28;20055;-64
2023/09/24 05:50:11;;;;;;;52.00;24.40;;;;;;;;;;5068344;28;20040;-64
2023/09/24 05:52:37;;;;;;;42.60;23.07;;;;;;;;;;5058833;28;20408;-64
2023/09/24 05:55:03;;;;;;;46.90;24.47;;;;;;;;;;5059675;28;20155;-64
2023/09/24 05:57:29;;;;;;;50.77;24.13;;;;;;;;;;5068358;28;20120;-64
2023/09/24 05:59:56;;;;;;;51.37;22.93;;;;;;;;;;5068342;28;20554;-64
2023/09/24 06:02:24;;;;;;;47.27;24.00;;;;;;;;;;5063422;28;20041;-63
2023/09/24 06:04:50;;;;;;;50.73;25.63;;;;;;;;;;5048588;28;20364;-64
2023/09/24 06:07:16;;;;;;;49.97;26.63;;;;;;;;;;5048270;28;20422;-64
2023/09/24 06:09:42;;;;;;;49.23;25.33;;;;;;;;;;5048102;28;20045;-64
2023/09/24 06:12:08;;;;;;;39.63;23.67;;;;;;;;;;5046921;28;20052;-64
2023/09/24 06:14:34;;;;;;;47.37;25.80;;;;;;;;;;5048100;28;20045;-64
2023/09/24 06:17:01;;;;;;;36.40;21.23;;;;;;;;;;5047066;28;20042;-64
2023/09/24 06:19:27;;;;;;;81.90;35.77;;;;;;;;;;5048246;28;20049;-63
2023/09/24 06:21:53;;;;;;;53.80;27.07;;;;;;;;;;5047924;28;20526;-64
2023/09/24 06:24:20;;;;;;;65.30;28.43;;;;;;;;;;5065864;28;20048;-64
2023/09/24 06:26:46;;;;;;;41.83;23.73;;;;;;;;;;5068223;28;20486;-64
2023/09/24 06:29:13;;;;;;;49.30;25.00;;;;;;;;;;5059761;28;20562;-64
2023/09/24 06:31:39;;;;;;;57.80;27.43;;;;;;;;;;5061977;28;20194;-64
2023/09/24 06:34:05;;;;;;;43.37;23.20;;;;;;;;;;5067217;28;20036;-64
2023/09/24 06:36:31;;;;;;;44.47;21.83;;;;;;;;;;5068637;28;20041;-63
2023/09/24 06:38:59;;;;;;;42.07;24.87;;;;;;;;;;5071869;28;20099;-63
2023/09/24 06:41:25;;;;;;;38.13;21.87;;;;;;;;;;5071984;28;20048;-64
2023/09/24 06:43:52;;;;;;;34.30;20.50;;;;;;;;;;5068363;28;20051;-63
2023/09/24 06:46:18;;;;;;;42.47;25.00;;;;;;;;;;5063325;28;20052;-64
2023/09/24 06:48:44;;;;;;;59.67;28.43;;;;;;;;;;5051834;28;20049;-64
2023/09/24 06:51:10;;;;;;;38.87;23.00;;;;;;;;;;5051405;28;20052;-63
2023/09/24 06:53:37;;;;;;;54.80;27.30;;;;;;;;;;5051566;28;20048;-64
2023/09/24 06:56:09;;;;;;;33.80;20.53;;;;;;;;;;5051509;28;20063;-64
2023/09/24 06:58:36;;;;;;;43.83;21.60;;;;;;;;;;5050852;28;20053;-64
2023/09/24 07:01:03;;;;;;;49.17;26.13;;;;;;;;;;5055408;28;20047;-64
2023/09/24 07:03:29;;;;;;;33.47;20.57;;;;;;;;;;5071725;28;20068;-63
2023/09/24 07:05:55;;;;;;;48.17;23.83;;;;;;;;;;5071808;28;20087;-64
2023/09/24 07:08:21;;;;;;;30.03;18.80;;;;;;;;;;5070881;28;20037;-64
2023/09/24 07:10:50;;;;;;;32.17;20.43;;;;;;;;;;5071300;28;20044;-64
2023/09/24 07:13:16;;;;;;;43.30;23.37;;;;;;;;;;5071376;28;20044;-64
2023/09/24 07:15:42;;;;;;;32.13;18.10;;;;;;;;;;5071349;28;20431;-64
2023/09/24 07:18:08;;;;;;;31.43;18.30;;;;;;;;;;5071149;28;20047;-64
2023/09/24 07:20:34;;;;;;;34.77;19.60;;;;;;;;;;5068025;28;20100;-64
2023/09/24 07:23:00;;;;;;;37.17;20.63;;;;;;;;;;5069759;28;20090;-65
2023/09/24 07:25:27;;;;;;;40.60;21.70;;;;;;;;;;5069677;28;20080;-64
2023/09/24 07:27:54;;;;;;;31.13;18.03;;;;;;;;;;5070734;28;20040;-64
2023/09/24 07:30:20;;;;;;;26.70;16.70;;;;;;;;;;5071196;28;20451;-63
2023/09/24 07:32:48;;;;;;;35.47;18.83;;;;;;;;;;5070874;28;20387;-64
2023/09/24 07:35:13;;;;;;;25.97;17.23;;;;;;;;;;5070727;28;20040;-65
2023/09/24 07:37:39;;;;;;;33.17;20.33;;;;;;;;;;5070281;28;20052;-68
2023/09/24 07:40:06;;;;;;;34.83;17.10;;;;;;;;;;5070649;28;20565;-64
2023/09/24 07:42:32;;;;;;;31.97;17.93;;;;;;;;;;5064748;28;20088;-63
2023/09/24 07:44:58;;;;;;;28.53;16.57;;;;;;;;;;5070490;28;20049;-64
2023/09/24 07:47:24;;;;;;;25.67;17.17;;;;;;;;;;5070060;28;20046;-64
2023/09/24 07:49:50;;;;;;;29.87;16.10;;;;;;;;;;5070250;28;20053;-64
2023/09/24 07:52:16;;;;;;;35.40;19.67;;;;;;;;;;5070782;28;20044;-63
2023/09/24 07:54:42;;;;;;;27.23;17.97;;;;;;;;;;5070161;28;20487;-63
2023/09/24 07:57:08;;;;;;;25.73;15.80;;;;;;;;;;5070440;28;20079;-64
2023/09/24 07:59:34;;;;;;;22.80;15.17;;;;;;;;;;5070262;28;20044;-64
2023/09/24 08:02:01;;;;;;;28.00;16.90;;;;;;;;;;5055565;28;20129;-64
2023/09/24 08:04:27;;;;;;;26.10;14.73;;;;;;;;;;5050259;28;20056;-64
2023/09/24 08:06:53;;;;;;;24.40;15.00;;;;;;;;;;5049905;28;20423;-64
2023/09/24 08:09:19;;;;;;;30.00;16.77;;;;;;;;;;5051251;28;20041;-64
2023/09/24 08:11:46;;;;;;;29.90;14.27;;;;;;;;;;5049723;28;20088;-64
2023/09/24 08:14:11;;;;;;;34.10;16.77;;;;;;;;;;5049655;28;20051;-64
2023/09/24 08:16:37;;;;;;;20.47;13.60;;;;;;;;;;5050250;28;20040;-63
2023/09/24 08:19:04;;;;;;;22.47;15.57;;;;;;;;;;5049875;28;20507;-64
2023/09/24 08:21:30;;;;;;;27.23;13.80;;;;;;;;;;5058191;28;20041;-64
2023/09/24 08:23:57;;;;;;;30.67;16.77;;;;;;;;;;5069767;28;20045;-64
2023/09/24 08:26:23;;;;;;;25.93;13.87;;;;;;;;;;5069493;28;20074;-64
2023/09/24 08:28:49;;;;;;;23.00;14.03;;;;;;;;;;5060961;28;20049;-63
2023/09/24 08:31:18;;;;;;;24.23;13.80;;;;;;;;;;5058988;28;20041;-64
2023/09/24 08:33:44;;;;;;;24.37;14.27;;;;;;;;;;5064309;28;20037;-63
2023/09/24 08:36:10;;;;;;;21.40;13.90;;;;;;;;;;5069608;28;20144;-64
2023/09/24 08:38:37;;;;;;;19.73;12.80;;;;;;;;;;5064568;28;20119;-64
2023/09/24 08:41:10;;;;;;;25.67;15.07;;;;;;;;;;5058564;28;20045;-64
2023/09/24 08:43:38;;;;;;;25.43;13.70;;;;;;;;;;5069912;28;20036;-63
2023/09/24 08:46:05;;;;;;;23.30;14.20;;;;;;;;;;5068262;28;20036;-64
2023/09/24 08:48:31;;;;;;;22.37;14.50;;;;;;;;;;5068168;28;20143;-64
2023/09/24 08:50:58;;;;;;;19.40;12.33;;;;;;;;;;5069688;28;20049;-64
2023/09/24 08:53:27;;;;;;;15.67;10.23;;;;;;;;;;5069661;28;20064;-63
2023/09/24 08:55:57;;;;;;;13.27;8.87;;;;;;;;;;5069233;28;20071;-64
2023/09/24 08:58:23;;;;;;;17.57;10.03;;;;;;;;;;5054235;28;20139;-63
2023/09/24 09:00:51;;;;;;;15.20;8.87;;;;;;;;;;5068330;28;20053;-64
2023/09/24 09:03:17;;;;;;;12.83;7.33;;;;;;;;;;5068293;28;20399;-63
2023/09/24 09:05:44;;;;;;;12.03;7.30;;;;;;;;;;5069081;28;20422;-64
2023/09/24 09:08:11;;;;;;;13.73;6.10;;;;;;;;;;5068730;28;20117;-63
2023/09/24 09:10:37;;;;;;;13.07;6.63;;;;;;;;;;5068719;28;20408;-63
2023/09/24 09:13:04;;;;;;;9.43;5.97;;;;;;;;;;5053030;28;20503;-64
2023/09/24 09:15:30;;;;;;;15.70;6.40;;;;;;;;;;5049048;28;20040;-63
2023/09/24 09:17:56;;;;;;;11.20;5.63;;;;;;;;;;5064678;28;20036;-63
2023/09/24 09:20:41;;;;;;;11.23;5.53;;;;;;;;;;5066087;28;20055;-63
2023/09/24 09:23:15;;;;;;;12.83;5.07;;;;;;;;;;5048719;28;20048;-63
2023/09/24 09:25:52;;;;;;;11.90;4.93;;;;;;;;;;5067034;28;20131;-63
2023/09/24 09:28:29;;;;;;;9.87;4.23;;;;;;;;;;5068211;28;20045;-63
2023/09/24 09:31:04;;;;;;;10.67;4.50;;;;;;;;;;5067598;28;20055;-64
2023/09/24 09:33:32;;;;;;;9.03;4.23;;;;;;;;;;5059426;28;20059;-64
2023/09/24 09:35:58;;;;;;;10.47;4.20;;;;;;;;;;5062562;28;20041;-63
2023/09/24 09:38:25;;;;;;;8.80;4.10;;;;;;;;;;5064104;28;20055;-64
2023/09/24 09:40:56;;;;;;;7.77;4.03;;;;;;;;;;5059790;28;20098;-63
2023/09/24 09:43:23;;;;;;;6.53;4.00;;;;;;;;;;5068486;28;20064;-63
2023/09/24 09:45:51;;;;;;;9.80;4.87;;;;;;;;;;5066891;28;20463;-63
2023/09/24 09:48:17;;;;;;;7.30;3.30;;;;;;;;;;5068669;28;20040;-63
2023/09/24 09:50:46;;;;;;;11.43;3.70;;;;;;;;;;5064795;28;20558;-64
2023/09/24 09:53:16;;;;;;;7.50;3.17;;;;;;;;;;5060745;28;20048;-63
2023/09/24 09:55:44;;;;;;;6.37;2.67;;;;;;;;;;5063719;28;20056;-63
2023/09/24 09:58:11;;;;;;;7.17;2.90;;;;;;;;;;5069550;28;20422;-64
2023/09/24 10:00:38;;;;;;;7.30;2.63;;;;;;;;;;5066043;28;20045;-63
2023/09/24 10:03:05;;;;;;;5.07;2.50;;;;;;;;;;5067535;28;20569;-64
2023/09/24 10:05:31;;;;;;;8.00;3.20;;;;;;;;;;5060674;28;20059;-64
2023/09/24 10:07:57;;;;;;;6.73;2.73;;;;;;;;;;5057487;28;20102;-64
2023/09/24 10:10:32;;;;;;;6.60;2.63;;;;;;;;;;5058681;28;20037;-64
2023/09/24 10:13:03;;;;;;;7.37;2.60;;;;;;;;;;5070769;28;20048;-64
2023/09/24 10:15:30;;;;;;;7.83;2.30;;;;;;;;;;5072449;28;20056;-64
2023/09/24 10:18:08;;;;;;;6.03;2.03;;;;;;;;;;5072921;28;20045;-63
2023/09/24 10:20:50;;;;;;;5.80;2.60;;;;;;;;;;5072408;28;20106;-64
2023/09/24 10:23:31;;;;;;;5.83;2.60;;;;;;;;;;5070883;28;20125;-65
2023/09/24 10:26:07;;;;;;;5.53;2.13;;;;;;;;;;5061815;28;20048;-64
2023/09/24 10:28:48;;;;;;;5.53;2.03;;;;;;;;;;5070315;28;20051;-64
2023/09/24 10:31:16;;;;;;;5.07;2.47;;;;;;;;;;5072303;28;20044;-64
2023/09/24 10:33:51;;;;;;;5.47;1.90;;;;;;;;;;5072238;28;20495;-64
2023/09/24 10:36:30;;;;;;;5.80;1.90;;;;;;;;;;5071623;28;20044;-65
2023/09/24 10:39:13;;;;;;;4.50;1.63;;;;;;;;;;5066411;28;20044;-64
2023/09/24 10:41:58;;;;;;;6.35;1.88;;;;;;;;;;5056447;28;20131;-64
2023/09/24 10:44:27;;;;;;;5.27;2.07;;;;;;;;;;5070812;28;20468;-64
2023/09/24 10:46:53;;;;;;;6.40;1.47;;;;;;;;;;5071686;28;20094;-64
2023/09/24 10:49:21;;;;;;;5.80;1.87;;;;;;;;;;5071376;28;20045;-64
2023/09/24 10:51:47;;;;;;;5.67;1.63;;;;;;;;;;5069589;28;20048;-63
2023/09/24 10:54:17;;;;;;;5.53;1.97;;;;;;;;;;5070861;28;20040;-64
2023/09/24 10:56:47;;;;;;;5.33;1.90;;;;;;;;;;5071088;28;20046;-63
2023/09/24 10:59:14;;;;;;;5.77;1.80;;;;;;;;;;5070519;28;20418;-63
2023/09/24 11:01:40;;;;;;;6.27;1.87;;;;;;;;;;5070628;28;20044;-63
2023/09/24 11:04:08;;;;;;;4.87;1.40;;;;;;;;;;5070363;28;20510;-63
2023/09/24 11:06:35;;;;;;;5.20;1.47;;;;;;;;;;5057367;28;20053;-63
2023/09/24 11:09:22;;;;;;;5.70;1.60;;;;;;;;;;5067535;28;20144;-63
2023/09/24 11:11:49;;;;;;;3.70;1.40;;;;;;;;;;5068451;28;20410;-63
2023/09/24 11:14:22;;;;;;;5.10;1.43;;;;;;;;;;5070497;28;20550;-63
2023/09/24 11:16:51;;;;;;;6.13;2.07;;;;;;;;;;5070239;28;20052;-62
2023/09/24 11:19:37;;;;;;;5.80;1.63;;;;;;;;;;5053128;28;20045;-62
2023/09/24 11:22:15;;;;;;;4.17;1.37;;;;;;;;;;5053924;28;20049;-64
2023/09/24 11:24:41;;;;;;;4.87;1.63;;;;;;;;;;5056146;28;20594;-62
2023/09/24 11:27:07;;;;;;;4.30;1.73;;;;;;;;;;5063387;28;20048;-62
2023/09/24 11:29:33;;;;;;;4.50;1.53;;;;;;;;;;5049644;28;20082;-59
2023/09/24 11:31:59;;;;;;;5.33;1.60;;;;;;;;;;5057972;28;20036;-60
2023/09/24 11:34:26;;;;;;;3.97;1.27;;;;;;;;;;5067695;28;20756;-61
2023/09/24 11:36:56;;;;;;;4.17;1.70;;;;;;;;;;5060981;28;20098;-61
2023/09/24 11:39:22;;;;;;;3.77;1.37;;;;;;;;;;5070595;28;20426;-61
2023/09/24 11:41:51;;;;;;;5.47;1.93;;;;;;;;;;5070142;28;20506;-59
2023/09/24 11:44:19;;;;;;;5.10;2.20;;;;;;;;;;5070584;28;20045;-59
2023/09/24 11:46:46;;;;;;;5.70;2.57;;;;;;;;;;5070031;28;20048;-59
2023/09/24 11:49:12;;;;;;;6.47;1.90;;;;;;;;;;5058232;28;20092;-59
2023/09/24 11:51:38;;;;;;;4.83;1.70;;;;;;;;;;5053888;28;20071;-59
2023/09/24 11:54:04;;;;;;;4.70;1.50;;;;;;;;;;5069414;28;20067;-60
2023/09/24 11:56:33;;;;;;;4.90;1.73;;;;;;;;;;5050133;28;20048;-60
2023/09/24 11:59:00;;;;;;;6.43;1.60;;;;;;;;;;5049716;28;20135;-60
2023/09/24 12:01:26;;;;;;;4.03;1.90;;;;;;;;;;5050139;28;20041;-61
2023/09/24 12:03:53;;;;;;;6.10;1.60;;;;;;;;;;5050151;28;20045;-60
2023/09/24 12:06:19;;;;;;;7.63;1.97;;;;;;;;;;5049964;28;20068;-60
2023/09/24 12:08:45;;;;;;;4.43;1.60;;;;;;;;;;5054168;28;20048;-60
2023/09/24 12:11:12;;;;;;;4.13;1.43;;;;;;;;;;5069826;28;20396;-60
2023/09/24 12:13:38;;;;;;;7.00;1.70;;;;;;;;;;5069249;28;20049;-59
2023/09/24 12:16:04;;;;;;;3.87;1.53;;;;;;;;;;5069002;28;20609;-59
2023/09/24 12:18:30;;;;;;;4.97;1.70;;;;;;;;;;5066784;28;20051;-60
2023/09/24 12:20:57;;;;;;;5.43;1.60;;;;;;;;;;5068474;28;20040;-60
2023/09/24 12:23:23;;;;;;;8.43;2.10;;;;;;;;;;5068973;28;20056;-59
2023/09/24 12:25:49;;;;;;;3.93;1.30;;;;;;;;;;5062222;28;20053;-59
2023/09/24 12:28:15;;;;;;;4.67;1.60;;;;;;;;;;5057037;28;20146;-59
2023/09/24 12:30:43;;;;;;;5.03;1.50;;;;;;;;;;5068606;28;20787;-59
2023/09/24 12:33:09;;;;;;;5.60;1.47;;;;;;;;;;5069882;28;20059;-60
2023/09/24 12:35:37;;;;;;;3.80;1.50;;;;;;;;;;5067774;28;20045;-59
2023/09/24 12:38:04;;;;;;;4.40;1.53;;;;;;;;;;5066771;28;20091;-59
2023/09/24 12:40:30;;;;;;;7.00;1.70;;;;;;;;;;5068507;28;20410;-59
2023/09/24 12:42:56;;;;;;;4.10;1.40;;;;;;;;;;5065076;28;20040;-59
2023/09/24 12:45:23;;;;;;;6.70;1.70;;;;;;;;;;5067174;28;20056;-60
2023/09/24 12:47:49;;;;;;;4.77;1.90;;;;;;;;;;5067198;28;20040;-60
2023/09/24 12:50:15;;;;;;;4.60;1.47;;;;;;;;;;5068523;28;20502;-59
2023/09/24 12:52:44;;;;;;;3.47;1.10;;;;;;;;;;5067150;28;20511;-59
2023/09/24 12:55:10;;;;;;;3.57;1.17;;;;;;;;;;5068685;28;20044;-60
2023/09/24 12:57:36;;;;;;;7.33;1.40;;;;;;;;;;5068544;28;20095;-59
2023/09/24 13:00:10;;;;;;;3.10;1.40;;;;;;;;;;5065323;28;20138;-59
2023/09/24 13:02:36;;;;;;;2.87;1.23;;;;;;;;;;5054453;28;20572;-60
2023/09/24 13:05:02;;;;;;;5.40;1.38;;;;;;;;;;5055520;28;20052;-59
2023/09/24 13:07:29;;;;;;;4.80;1.50;;;;;;;;;;5066509;28;20059;-60
2023/09/24 13:09:55;;;;;;;7.25;2.38;;;;;;;;;;5060271;28;20084;-60
2023/09/24 13:12:22;;;;;;;7.00;2.10;;;;;;;;;;5068256;28;20071;-60
2023/09/24 13:14:48;;;;;;;4.78;1.58;;;;;;;;;;5067681;28;20054;-60
2023/09/24 13:17:14;;;;;;;3.15;1.50;;;;;;;;;;5068220;28;20124;-60
2023/09/24 13:19:39;;;;;;;6.97;2.00;;;;;;;;;;5067801;28;20052;-60
2023/09/24 13:22:05;;;;;;;4.05;1.30;;;;;;;;;;5065453;28;20113;-59
2023/09/24 13:24:32;;;;;;;4.10;1.35;;;;;;;;;;5068049;28;20040;-60
2023/09/24 13:26:58;;;;;;;5.13;1.48;;;;;;;;;;5067790;28;20550;-60
2023/09/24 13:29:24;;;;;;;4.60;1.80;;;;;;;;;;5053823;28;20114;-61
2023/09/24 13:31:50;;;;;;;4.10;1.58;;;;;;;;;;5053648;28;20095;-60
2023/09/24 13:34:17;;;;;;;4.47;1.55;;;;;;;;;;5048295;28;20419;-60
2023/09/24 13:36:42;;;;;;;5.63;1.80;;;;;;;;;;5045704;28;20045;-60
2023/09/24 13:39:10;;;;;;;5.45;1.58;;;;;;;;;;5048320;28;20569;-60
2023/09/24 13:41:37;;;;;;;6.22;1.67;;;;;;;;;;5048014;28;20059;-60
2023/09/24 13:44:03;;;;;;;4.30;1.45;;;;;;;;;;5065490;28;20070;-60
2023/09/24 13:46:29;;;;;;;4.53;1.88;;;;;;;;;;5064790;28;20044;-61
2023/09/24 13:48:57;;;;;;;5.10;1.60;;;;;;;;;;5050696;28;20045;-61
2023/09/24 13:51:23;;;;;;;6.43;1.42;;;;;;;;;;5056182;28;20052;-61
2023/09/24 13:53:49;;;;;;;4.22;1.40;;;;;;;;;;5055869;28;20082;-60
2023/09/24 13:56:18;;;;;;;4.57;1.30;;;;;;;;;;5067932;28;20048;-61
2023/09/24 13:58:44;;;;;;;4.22;1.75;;;;;;;;;;5067575;28;20044;-61
2023/09/24 14:01:12;;;;;;;5.60;1.88;;;;;;;;;;5068168;28;20049;-60
2023/09/24 14:03:38;;;;;;;5.20;1.40;;;;;;;;;;5067060;28;20063;-61
2023/09/24 14:06:04;;;;;;;7.20;1.80;;;;;;;;;;5058586;28;20538;-61
2023/09/24 14:14:19;;;;;;;5.27;1.57;;;;;;;;;;5066927;28;20076;-60
2023/09/24 14:16:45;;;;;;;4.88;1.50;;;;;;;;;;5066813;28;20514;-61
2023/09/24 14:19:12;;;;;;;3.85;1.77;;;;;;;;;;5065577;28;20044;-60
2023/09/24 14:21:38;;;;;;;4.55;1.85;;;;;;;;;;5065734;28;20480;-61
2023/09/24 14:24:05;;;;;;;6.05;1.70;;;;;;;;;;5065874;28;20093;-61
2023/09/24 14:26:32;;;;;;;2.85;1.50;;;;;;;;;;5065801;28;20063;-60
2023/09/24 14:28:59;;;;;;;4.50;2.00;;;;;;;;;;5065428;28;20046;-61
2023/09/24 14:31:25;;;;;;;5.10;2.10;;;;;;;;;;5065891;28;20545;-61
2023/09/24 14:33:52;;;;;;;3.33;1.60;;;;;;;;;;5067378;28;20043;-61